sensor_id;sensor_type;location;lat;lon;timestamp;temperature;humidity
41678;DHT22;27364;49.026;8.712;2023-08-07T00:01:29;12.30;99.90
41678;DHT22;27364;49.026;8.712;2023-08-07T00:03:55;12.30;99.90
41678;DHT22;27364;49.026;8.712;2023-08-07T00:06:20;12.30;99.90
41678;DHT22;27364;49.026;8.712;2023-08-07T00:08:46;12.30;99.90
41678;DHT22;27364;49.026;8.712;2023-08-07T00:11:11;12.30;99.90
41678;DHT22;27364;49.026;8.712;2023-08-07T00:13:37;12.30;99.90
41678;DHT22;27364;49.026;8.712;2023-08-07T00:16:03;12.30;99.90
41678;DHT22;27364;49.026;8.712;2023-08-07T00:18:29;12.30;99.90
41678;DHT22;27364;49.026;8.712;2023-08-07T00:20:55;12.20;99.90
41678;DHT22;27364;49.026;8.712;2023-08-07T00:23:20;12.30;99.90
41678;DHT22;27364;49.026;8.712;2023-08-07T00:25:46;12.30;99.90
41678;DHT22;27364;49.026;8.712;2023-08-07T00:28:12;12.30;99.90
41678;DHT22;27364;49.026;8.712;2023-08-07T00:30:37;12.30;99.90
41678;DHT22;27364;49.026;8.712;2023-08-07T00:33:03;12.30;99.90
41678;DHT22;27364;49.026;8.712;2023-08-07T00:35:28;12.30;99.90
41678;DHT22;27364;49.026;8.712;2023-08-07T00:37:54;12.30;99.90
41678;DHT22;27364;49.026;8.712;2023-08-07T00:40:19;12.20;99.90
41678;DHT22;27364;49.026;8.712;2023-08-07T00:42:45;12.30;99.90
41678;DHT22;27364;49.026;8.712;2023-08-07T00:45:11;12.30;99.90
41678;DHT22;27364;49.026;8.712;2023-08-07T00:47:37;12.30;99.90
41678;DHT22;27364;49.026;8.712;2023-08-07T00:50:04;12.30;99.90
41678;DHT22;27364;49.026;8.712;2023-08-07T00:52:30;12.30;99.90
41678;DHT22;27364;49.026;8.712;2023-08-07T00:54:56;12.30;99.90
41678;DHT22;27364;49.026;8.712;2023-08-07T00:57:21;12.20;99.90
41678;DHT22;27364;49.026;8.712;2023-08-07T00:59:48;12.20;99.90
41678;DHT22;27364;49.026;8.712;2023-08-07T01:02:14;12.20;99.90
41678;DHT22;27364;49.026;8.712;2023-08-07T01:04:40;12.20;99.90
41678;DHT22;27364;49.026;8.712;2023-08-07T01:07:06;12.20;99.90
41678;DHT22;27364;49.026;8.712;2023-08-07T01:09:32;12.20;99.90
41678;DHT22;27364;49.026;8.712;2023-08-07T01:12:21;12.20;99.90
41678;DHT22;27364;49.026;8.712;2023-08-07T01:15:05;12.20;99.90
41678;DHT22;27364;49.026;8.712;2023-08-07T01:17:33;12.20;99.90
41678;DHT22;27364;49.026;8.712;2023-08-07T01:20:00;12.20;99.90
41678;DHT22;27364;49.026;8.712;2023-08-07T01:22:25;12.10;99.90
41678;DHT22;27364;49.026;8.712;2023-08-07T01:24:51;12.20;99.90
41678;DHT22;27364;49.026;8.712;2023-08-07T01:32:20;12.20;99.90
41678;DHT22;27364;49.026;8.712;2023-08-07T01:34:48;12.20;99.90
41678;DHT22;27364;49.026;8.712;2023-08-07T01:37:14;12.20;99.90
41678;DHT22;27364;49.026;8.712;2023-08-07T01:39:40;12.30;99.90
41678;DHT22;27364;49.026;8.712;2023-08-07T01:42:07;12.30;99.90
41678;DHT22;27364;49.026;8.712;2023-08-07T01:44:33;12.20;99.90
41678;DHT22;27364;49.026;8.712;2023-08-07T01:46:58;12.20;99.90
41678;DHT22;27364;49.026;8.712;2023-08-07T01:49:24;12.30;99.90
41678;DHT22;27364;49.026;8.712;2023-08-07T01:51:49;12.30;99.90
41678;DHT22;27364;49.026;8.712;2023-08-07T01:54:15;12.20;99.90
41678;DHT22;27364;49.026;8.712;2023-08-07T01:56:40;12.20;99.90
41678;DHT22;27364;49.026;8.712;2023-08-07T01:59:06;12.10;99.90
41678;DHT22;27364;49.026;8.712;2023-08-07T02:01:31;12.20;99.90
41678;DHT22;27364;49.026;8.712;2023-08-07T02:03:57;12.20;99.90
41678;DHT22;27364;49.026;8.712;2023-08-07T02:06:22;12.20;99.90
41678;DHT22;27364;49.026;8.712;2023-08-07T02:08:48;12.20;99.90
41678;DHT22;27364;49.026;8.712;2023-08-07T02:11:13;12.20;99.90
41678;DHT22;27364;49.026;8.712;2023-08-07T02:13:39;12.20;99.90
41678;DHT22;27364;49.026;8.712;2023-08-07T02:16:05;12.10;99.90
41678;DHT22;27364;49.026;8.712;2023-08-07T02:18:30;12.10;99.90
41678;DHT22;27364;49.026;8.712;2023-08-07T02:20:56;12.10;99.90
41678;DHT22;27364;49.026;8.712;2023-08-07T02:23:21;12.10;99.90
41678;DHT22;27364;49.026;8.712;2023-08-07T02:25:48;12.10;99.90
41678;DHT22;27364;49.026;8.712;2023-08-07T02:28:14;12.10;99.90
41678;DHT22;27364;49.026;8.712;2023-08-07T02:30:39;12.10;99.90
41678;DHT22;27364;49.026;8.712;2023-08-07T02:33:05;12.10;99.90
41678;DHT22;27364;49.026;8.712;2023-08-07T02:35:30;12.10;99.90
41678;DHT22;27364;49.026;8.712;2023-08-07T02:37:56;12.10;99.90
41678;DHT22;27364;49.026;8.712;2023-08-07T02:40:22;12.10;99.90
41678;DHT22;27364;49.026;8.712;2023-08-07T02:42:47;12.00;99.90
41678;DHT22;27364;49.026;8.712;2023-08-07T02:45:13;12.10;99.90
41678;DHT22;27364;49.026;8.712;2023-08-07T02:47:38;12.10;99.90
41678;DHT22;27364;49.026;8.712;2023-08-07T02:50:04;12.10;99.90
41678;DHT22;27364;49.026;8.712;2023-08-07T02:52:30;12.00;99.90
41678;DHT22;27364;49.026;8.712;2023-08-07T02:54:55;12.00;99.90
41678;DHT22;27364;49.026;8.712;2023-08-07T02:57:21;12.10;99.90
41678;DHT22;27364;49.026;8.712;2023-08-07T02:59:46;12.10;99.90
41678;DHT22;27364;49.026;8.712;2023-08-07T03:02:12;12.00;99.90
41678;DHT22;27364;49.026;8.712;2023-08-07T03:04:38;12.00;99.90
41678;DHT22;27364;49.026;8.712;2023-08-07T03:07:03;12.10;99.90
41678;DHT22;27364;49.026;8.712;2023-08-07T03:09:29;12.10;99.90
41678;DHT22;27364;49.026;8.712;2023-08-07T03:11:54;12.10;99.90
41678;DHT22;27364;49.026;8.712;2023-08-07T03:14:20;12.00;99.90
41678;DHT22;27364;49.026;8.712;2023-08-07T03:16:45;12.10;99.90
41678;DHT22;27364;49.026;8.712;2023-08-07T03:19:11;12.10;99.90
41678;DHT22;27364;49.026;8.712;2023-08-07T03:21:37;12.00;99.90
41678;DHT22;27364;49.026;8.712;2023-08-07T03:24:03;12.00;99.90
41678;DHT22;27364;49.026;8.712;2023-08-07T03:26:28;12.00;99.90
41678;DHT22;27364;49.026;8.712;2023-08-07T03:28:54;12.00;99.90
41678;DHT22;27364;49.026;8.712;2023-08-07T03:31:19;12.10;99.90
41678;DHT22;27364;49.026;8.712;2023-08-07T03:33:45;12.00;99.90
41678;DHT22;27364;49.026;8.712;2023-08-07T03:36:10;12.00;99.90
41678;DHT22;27364;49.026;8.712;2023-08-07T03:38:36;12.00;99.90
41678;DHT22;27364;49.026;8.712;2023-08-07T03:41:02;12.00;99.90
41678;DHT22;27364;49.026;8.712;2023-08-07T03:43:28;12.00;99.90
41678;DHT22;27364;49.026;8.712;2023-08-07T03:45:54;12.10;99.90
41678;DHT22;27364;49.026;8.712;2023-08-07T03:48:21;12.10;99.90
41678;DHT22;27364;49.026;8.712;2023-08-07T03:50:46;12.10;99.90
41678;DHT22;27364;49.026;8.712;2023-08-07T03:53:12;12.10;99.90
41678;DHT22;27364;49.026;8.712;2023-08-07T03:55:38;12.10;99.90
41678;DHT22;27364;49.026;8.712;2023-08-07T03:58:04;12.10;99.90
41678;DHT22;27364;49.026;8.712;2023-08-07T04:00:29;12.10;99.90
41678;DHT22;27364;49.026;8.712;2023-08-07T04:02:55;12.10;99.90
41678;DHT22;27364;49.026;8.712;2023-08-07T04:05:21;12.10;99.90
41678;DHT22;27364;49.026;8.712;2023-08-07T04:07:46;12.20;99.90
41678;DHT22;27364;49.026;8.712;2023-08-07T04:10:12;12.10;99.90
41678;DHT22;27364;49.026;8.712;2023-08-07T04:12:37;12.20;99.90
41678;DHT22;27364;49.026;8.712;2023-08-07T04:15:03;12.10;99.90
41678;DHT22;27364;49.026;8.712;2023-08-07T04:17:29;12.20;99.90
41678;DHT22;27364;49.026;8.712;2023-08-07T04:19:54;12.10;99.90
41678;DHT22;27364;49.026;8.712;2023-08-07T04:22:20;12.20;99.90
41678;DHT22;27364;49.026;8.712;2023-08-07T04:24:45;12.20;99.90
41678;DHT22;27364;49.026;8.712;2023-08-07T04:27:11;12.20;99.90
41678;DHT22;27364;49.026;8.712;2023-08-07T04:29:37;12.20;99.90
41678;DHT22;27364;49.026;8.712;2023-08-07T04:32:03;12.10;99.90
41678;DHT22;27364;49.026;8.712;2023-08-07T04:34:29;12.20;99.90
41678;DHT22;27364;49.026;8.712;2023-08-07T04:36:54;12.20;99.90
41678;DHT22;27364;49.026;8.712;2023-08-07T04:39:21;12.20;99.90
41678;DHT22;27364;49.026;8.712;2023-08-07T04:41:47;12.20;99.90
41678;DHT22;27364;49.026;8.712;2023-08-07T04:44:15;12.20;99.90
41678;DHT22;27364;49.026;8.712;2023-08-07T04:46:41;12.20;99.90
41678;DHT22;27364;49.026;8.712;2023-08-07T04:49:07;12.20;99.90
41678;DHT22;27364;49.026;8.712;2023-08-07T04:51:32;12.20;99.90
41678;DHT22;27364;49.026;8.712;2023-08-07T04:53:58;12.20;99.90
41678;DHT22;27364;49.026;8.712;2023-08-07T04:56:24;12.20;99.90
41678;DHT22;27364;49.026;8.712;2023-08-07T04:58:49;12.30;99.90
41678;DHT22;27364;49.026;8.712;2023-08-07T05:01:15;12.30;99.90
41678;DHT22;27364;49.026;8.712;2023-08-07T05:03:41;12.30;99.90
41678;DHT22;27364;49.026;8.712;2023-08-07T05:06:06;12.30;99.90
41678;DHT22;27364;49.026;8.712;2023-08-07T05:08:32;12.30;99.90
41678;DHT22;27364;49.026;8.712;2023-08-07T05:10:57;12.30;99.90
41678;DHT22;27364;49.026;8.712;2023-08-07T05:13:23;12.40;99.90
41678;DHT22;27364;49.026;8.712;2023-08-07T05:15:49;12.30;99.90
41678;DHT22;27364;49.026;8.712;2023-08-07T05:18:15;12.30;99.90
41678;DHT22;27364;49.026;8.712;2023-08-07T05:20:40;12.30;99.90
41678;DHT22;27364;49.026;8.712;2023-08-07T05:23:06;12.40;99.90
41678;DHT22;27364;49.026;8.712;2023-08-07T05:25:32;12.40;99.90
41678;DHT22;27364;49.026;8.712;2023-08-07T05:27:58;12.40;99.90
41678;DHT22;27364;49.026;8.712;2023-08-07T05:30:23;12.40;99.90
41678;DHT22;27364;49.026;8.712;2023-08-07T05:32:49;12.40;99.90
41678;DHT22;27364;49.026;8.712;2023-08-07T05:35:14;12.40;99.90
41678;DHT22;27364;49.026;8.712;2023-08-07T05:37:40;12.40;99.90
41678;DHT22;27364;49.026;8.712;2023-08-07T05:40:06;12.40;99.90
41678;DHT22;27364;49.026;8.712;2023-08-07T05:42:32;12.50;99.90
41678;DHT22;27364;49.026;8.712;2023-08-07T05:44:58;12.50;99.90
41678;DHT22;27364;49.026;8.712;2023-08-07T05:47:24;12.40;99.90
41678;DHT22;27364;49.026;8.712;2023-08-07T05:49:50;12.50;99.90
41678;DHT22;27364;49.026;8.712;2023-08-07T05:52:17;12.50;99.90
41678;DHT22;27364;49.026;8.712;2023-08-07T05:54:43;12.50;99.90
41678;DHT22;27364;49.026;8.712;2023-08-07T05:57:09;12.60;99.90
41678;DHT22;27364;49.026;8.712;2023-08-07T05:59:34;12.60;99.90
41678;DHT22;27364;49.026;8.712;2023-08-07T06:02:02;12.60;99.90
41678;DHT22;27364;49.026;8.712;2023-08-07T06:04:28;12.70;99.90
41678;DHT22;27364;49.026;8.712;2023-08-07T06:06:54;12.70;99.90
41678;DHT22;27364;49.026;8.712;2023-08-07T06:09:20;12.70;99.90
41678;DHT22;27364;49.026;8.712;2023-08-07T06:11:47;12.70;99.90
41678;DHT22;27364;49.026;8.712;2023-08-07T06:14:12;12.70;99.90
41678;DHT22;27364;49.026;8.712;2023-08-07T06:16:38;12.70;99.90
41678;DHT22;27364;49.026;8.712;2023-08-07T06:19:04;12.70;99.90
41678;DHT22;27364;49.026;8.712;2023-08-07T06:21:29;12.80;99.90
41678;DHT22;27364;49.026;8.712;2023-08-07T06:23:55;12.80;99.90
41678;DHT22;27364;49.026;8.712;2023-08-07T06:26:21;12.80;99.90
41678;DHT22;27364;49.026;8.712;2023-08-07T06:28:46;12.90;99.90
41678;DHT22;27364;49.026;8.712;2023-08-07T06:31:12;12.80;99.90
41678;DHT22;27364;49.026;8.712;2023-08-07T06:33:38;12.90;99.90
41678;DHT22;27364;49.026;8.712;2023-08-07T06:36:05;13.00;99.90
41678;DHT22;27364;49.026;8.712;2023-08-07T06:38:31;13.00;99.90
41678;DHT22;27364;49.026;8.712;2023-08-07T06:40:57;13.00;99.90
41678;DHT22;27364;49.026;8.712;2023-08-07T06:43:23;13.00;99.90
41678;DHT22;27364;49.026;8.712;2023-08-07T06:45:53;13.00;99.90
41678;DHT22;27364;49.026;8.712;2023-08-07T06:48:18;13.00;99.90
41678;DHT22;27364;49.026;8.712;2023-08-07T06:50:46;13.10;99.90
41678;DHT22;27364;49.026;8.712;2023-08-07T06:53:11;13.00;99.90
41678;DHT22;27364;49.026;8.712;2023-08-07T06:55:37;13.00;99.90
41678;DHT22;27364;49.026;8.712;2023-08-07T06:58:02;13.10;99.90
41678;DHT22;27364;49.026;8.712;2023-08-07T07:00:28;13.10;99.90
41678;DHT22;27364;49.026;8.712;2023-08-07T07:02:53;13.10;99.90
41678;DHT22;27364;49.026;8.712;2023-08-07T07:05:19;13.10;99.90
41678;DHT22;27364;49.026;8.712;2023-08-07T07:07:45;13.10;99.90
41678;DHT22;27364;49.026;8.712;2023-08-07T07:10:10;13.10;99.90
41678;DHT22;27364;49.026;8.712;2023-08-07T07:12:36;13.10;99.90
41678;DHT22;27364;49.026;8.712;2023-08-07T07:15:02;13.10;99.90
41678;DHT22;27364;49.026;8.712;2023-08-07T07:17:28;13.20;99.90
41678;DHT22;27364;49.026;8.712;2023-08-07T07:19:53;13.20;99.90
41678;DHT22;27364;49.026;8.712;2023-08-07T07:22:19;13.20;99.90
41678;DHT22;27364;49.026;8.712;2023-08-07T07:24:44;13.30;99.90
41678;DHT22;27364;49.026;8.712;2023-08-07T07:27:10;13.30;99.90
41678;DHT22;27364;49.026;8.712;2023-08-07T07:29:36;13.30;99.90
41678;DHT22;27364;49.026;8.712;2023-08-07T07:32:02;13.30;99.90
41678;DHT22;27364;49.026;8.712;2023-08-07T07:34:27;13.30;99.90
41678;DHT22;27364;49.026;8.712;2023-08-07T07:36:53;13.30;99.90
41678;DHT22;27364;49.026;8.712;2023-08-07T07:39:19;13.30;99.90
41678;DHT22;27364;49.026;8.712;2023-08-07T07:41:45;13.30;99.90
41678;DHT22;27364;49.026;8.712;2023-08-07T07:44:11;13.30;99.90
41678;DHT22;27364;49.026;8.712;2023-08-07T07:46:36;13.30;99.90
41678;DHT22;27364;49.026;8.712;2023-08-07T07:49:02;13.40;99.90
41678;DHT22;27364;49.026;8.712;2023-08-07T07:51:29;13.40;99.90
41678;DHT22;27364;49.026;8.712;2023-08-07T07:53:55;13.50;99.90
41678;DHT22;27364;49.026;8.712;2023-08-07T07:56:20;13.60;99.90
41678;DHT22;27364;49.026;8.712;2023-08-07T07:58:46;13.70;99.90
41678;DHT22;27364;49.026;8.712;2023-08-07T08:01:11;13.70;99.90
41678;DHT22;27364;49.026;8.712;2023-08-07T08:03:37;13.80;99.90
41678;DHT22;27364;49.026;8.712;2023-08-07T08:06:02;13.90;99.90
41678;DHT22;27364;49.026;8.712;2023-08-07T08:08:28;13.90;99.90
41678;DHT22;27364;49.026;8.712;2023-08-07T08:10:54;14.00;99.90
41678;DHT22;27364;49.026;8.712;2023-08-07T08:13:20;14.00;99.90
41678;DHT22;27364;49.026;8.712;2023-08-07T08:15:45;14.00;99.90
41678;DHT22;27364;49.026;8.712;2023-08-07T08:18:11;14.00;99.90
41678;DHT22;27364;49.026;8.712;2023-08-07T08:20:37;14.00;99.90
41678;DHT22;27364;49.026;8.712;2023-08-07T08:23:04;14.00;99.90
41678;DHT22;27364;49.026;8.712;2023-08-07T08:25:30;14.10;99.90
41678;DHT22;27364;49.026;8.712;2023-08-07T08:27:56;14.10;99.90
41678;DHT22;27364;49.026;8.712;2023-08-07T08:30:21;14.10;99.90
41678;DHT22;27364;49.026;8.712;2023-08-07T08:32:47;14.20;99.90
41678;DHT22;27364;49.026;8.712;2023-08-07T08:35:13;14.20;99.90
41678;DHT22;27364;49.026;8.712;2023-08-07T08:37:38;14.30;99.90
41678;DHT22;27364;49.026;8.712;2023-08-07T08:40:05;14.30;99.90
41678;DHT22;27364;49.026;8.712;2023-08-07T08:42:32;14.30;99.90
41678;DHT22;27364;49.026;8.712;2023-08-07T08:44:59;14.40;99.90
41678;DHT22;27364;49.026;8.712;2023-08-07T08:47:29;14.60;99.90
41678;DHT22;27364;49.026;8.712;2023-08-07T08:50:09;14.70;99.90
41678;DHT22;27364;49.026;8.712;2023-08-07T08:52:38;14.70;99.90
41678;DHT22;27364;49.026;8.712;2023-08-07T08:55:04;14.70;99.90
41678;DHT22;27364;49.026;8.712;2023-08-07T08:57:30;14.60;99.90
41678;DHT22;27364;49.026;8.712;2023-08-07T08:59:57;14.60;99.90
41678;DHT22;27364;49.026;8.712;2023-08-07T09:02:23;14.60;99.90
41678;DHT22;27364;49.026;8.712;2023-08-07T09:04:48;14.70;99.90
41678;DHT22;27364;49.026;8.712;2023-08-07T09:07:15;14.60;99.90
41678;DHT22;27364;49.026;8.712;2023-08-07T09:09:44;14.70;99.90
41678;DHT22;27364;49.026;8.712;2023-08-07T09:12:20;14.60;99.90
41678;DHT22;27364;49.026;8.712;2023-08-07T09:14:56;14.60;99.90
41678;DHT22;27364;49.026;8.712;2023-08-07T09:17:24;14.60;99.90
41678;DHT22;27364;49.026;8.712;2023-08-07T09:19:52;14.50;99.90
41678;DHT22;27364;49.026;8.712;2023-08-07T09:22:19;14.50;99.90
41678;DHT22;27364;49.026;8.712;2023-08-07T09:24:45;14.60;99.90
41678;DHT22;27364;49.026;8.712;2023-08-07T09:27:11;14.60;99.90
41678;DHT22;27364;49.026;8.712;2023-08-07T09:29:39;14.80;99.90
41678;DHT22;27364;49.026;8.712;2023-08-07T09:32:09;15.00;99.90
41678;DHT22;27364;49.026;8.712;2023-08-07T09:34:34;15.20;99.90
41678;DHT22;27364;49.026;8.712;2023-08-07T09:37:01;15.30;99.90
41678;DHT22;27364;49.026;8.712;2023-08-07T09:39:27;15.50;99.90
41678;DHT22;27364;49.026;8.712;2023-08-07T09:41:52;15.70;99.90
41678;DHT22;27364;49.026;8.712;2023-08-07T09:44:18;15.90;99.90
41678;DHT22;27364;49.026;8.712;2023-08-07T09:46:44;16.00;99.90
41678;DHT22;27364;49.026;8.712;2023-08-07T09:49:10;15.90;99.90
41678;DHT22;27364;49.026;8.712;2023-08-07T09:51:47;15.80;99.90
41678;DHT22;27364;49.026;8.712;2023-08-07T09:54:12;15.60;99.90
41678;DHT22;27364;49.026;8.712;2023-08-07T09:56:40;15.60;99.90
41678;DHT22;27364;49.026;8.712;2023-08-07T09:59:05;15.60;99.90
41678;DHT22;27364;49.026;8.712;2023-08-07T10:01:32;15.70;99.90
41678;DHT22;27364;49.026;8.712;2023-08-07T10:03:58;16.00;99.90
41678;DHT22;27364;49.026;8.712;2023-08-07T10:06:24;16.00;99.90
41678;DHT22;27364;49.026;8.712;2023-08-07T10:08:50;15.90;99.90
41678;DHT22;27364;49.026;8.712;2023-08-07T10:11:16;15.90;99.90
41678;DHT22;27364;49.026;8.712;2023-08-07T10:13:43;16.00;99.90
41678;DHT22;27364;49.026;8.712;2023-08-07T10:16:09;16.20;99.90
41678;DHT22;27364;49.026;8.712;2023-08-07T10:18:35;16.20;99.90
41678;DHT22;27364;49.026;8.712;2023-08-07T10:21:03;16.10;99.90
41678;DHT22;27364;49.026;8.712;2023-08-07T10:23:32;16.10;99.90
41678;DHT22;27364;49.026;8.712;2023-08-07T10:25:59;16.10;99.90
41678;DHT22;27364;49.026;8.712;2023-08-07T10:28:26;16.00;99.90
41678;DHT22;27364;49.026;8.712;2023-08-07T10:30:52;15.90;99.90
41678;DHT22;27364;49.026;8.712;2023-08-07T10:33:18;16.00;99.90
41678;DHT22;27364;49.026;8.712;2023-08-07T10:35:47;16.00;99.90
41678;DHT22;27364;49.026;8.712;2023-08-07T10:38:13;15.90;99.90
41678;DHT22;27364;49.026;8.712;2023-08-07T10:41:02;16.00;99.90
41678;DHT22;27364;49.026;8.712;2023-08-07T10:43:28;16.20;99.90
41678;DHT22;27364;49.026;8.712;2023-08-07T10:46:11;16.30;99.90
41678;DHT22;27364;49.026;8.712;2023-08-07T10:48:53;16.40;99.90
41678;DHT22;27364;49.026;8.712;2023-08-07T10:51:19;16.40;99.90
41678;DHT22;27364;49.026;8.712;2023-08-07T10:53:47;16.50;99.90
41678;DHT22;27364;49.026;8.712;2023-08-07T10:56:35;16.30;99.90
41678;DHT22;27364;49.026;8.712;2023-08-07T10:59:10;16.30;99.90
41678;DHT22;27364;49.026;8.712;2023-08-07T11:04:09;16.00;99.90
41678;DHT22;27364;49.026;8.712;2023-08-07T11:06:36;15.90;99.90
41678;DHT22;27364;49.026;8.712;2023-08-07T11:09:04;15.80;99.90
41678;DHT22;27364;49.026;8.712;2023-08-07T11:11:42;15.80;99.90
41678;DHT22;27364;49.026;8.712;2023-08-07T11:14:18;15.70;99.90
41678;DHT22;27364;49.026;8.712;2023-08-07T11:16:46;15.60;99.90
41678;DHT22;27364;49.026;8.712;2023-08-07T11:19:13;15.50;99.90
41678;DHT22;27364;49.026;8.712;2023-08-07T11:21:39;15.40;99.90
41678;DHT22;27364;49.026;8.712;2023-08-07T11:24:05;15.40;99.90
41678;DHT22;27364;49.026;8.712;2023-08-07T11:26:31;15.40;99.90
41678;DHT22;27364;49.026;8.712;2023-08-07T11:28:57;15.40;99.90
41678;DHT22;27364;49.026;8.712;2023-08-07T11:31:24;15.30;99.90
41678;DHT22;27364;49.026;8.712;2023-08-07T11:33:51;15.30;99.90
41678;DHT22;27364;49.026;8.712;2023-08-07T11:36:17;15.30;99.90
41678;DHT22;27364;49.026;8.712;2023-08-07T11:38:44;15.30;99.90
41678;DHT22;27364;49.026;8.712;2023-08-07T11:41:14;15.20;99.90
41678;DHT22;27364;49.026;8.712;2023-08-07T11:43:41;15.30;99.90
41678;DHT22;27364;49.026;8.712;2023-08-07T11:46:08;15.20;99.90
41678;DHT22;27364;49.026;8.712;2023-08-07T11:48:35;15.30;99.90
41678;DHT22;27364;49.026;8.712;2023-08-07T11:51:02;15.30;99.90
41678;DHT22;27364;49.026;8.712;2023-08-07T11:53:31;15.30;99.90
41678;DHT22;27364;49.026;8.712;2023-08-07T11:56:02;15.30;99.90
41678;DHT22;27364;49.026;8.712;2023-08-07T11:58:46;15.30;99.90
41678;DHT22;27364;49.026;8.712;2023-08-07T12:01:14;15.20;99.90
41678;DHT22;27364;49.026;8.712;2023-08-07T12:03:57;15.10;99.90
41678;DHT22;27364;49.026;8.712;2023-08-07T12:06:34;15.10;99.90
41678;DHT22;27364;49.026;8.712;2023-08-07T12:09:01;15.10;99.90
41678;DHT22;27364;49.026;8.712;2023-08-07T12:11:29;15.10;99.90
41678;DHT22;27364;49.026;8.712;2023-08-07T12:13:54;15.10;99.90
41678;DHT22;27364;49.026;8.712;2023-08-07T12:16:20;15.10;99.90
41678;DHT22;27364;49.026;8.712;2023-08-07T12:18:47;15.20;99.90
41678;DHT22;27364;49.026;8.712;2023-08-07T12:21:20;15.30;99.90
41678;DHT22;27364;49.026;8.712;2023-08-07T12:23:46;15.40;99.90
41678;DHT22;27364;49.026;8.712;2023-08-07T12:26:15;15.50;99.90
41678;DHT22;27364;49.026;8.712;2023-08-07T12:28:41;15.50;99.90
41678;DHT22;27364;49.026;8.712;2023-08-07T12:31:07;15.60;99.90
41678;DHT22;27364;49.026;8.712;2023-08-07T12:33:33;15.60;99.90
41678;DHT22;27364;49.026;8.712;2023-08-07T12:35:59;15.60;99.90
41678;DHT22;27364;49.026;8.712;2023-08-07T12:38:25;15.70;99.90
41678;DHT22;27364;49.026;8.712;2023-08-07T12:40:51;15.70;99.90
41678;DHT22;27364;49.026;8.712;2023-08-07T12:43:17;15.80;99.90
41678;DHT22;27364;49.026;8.712;2023-08-07T12:45:42;15.90;99.90
41678;DHT22;27364;49.026;8.712;2023-08-07T12:48:08;15.90;99.90
41678;DHT22;27364;49.026;8.712;2023-08-07T12:50:33;16.00;99.90
41678;DHT22;27364;49.026;8.712;2023-08-07T12:52:59;16.20;99.90
41678;DHT22;27364;49.026;8.712;2023-08-07T12:55:25;16.30;99.90
41678;DHT22;27364;49.026;8.712;2023-08-07T12:57:52;16.40;99.90
41678;DHT22;27364;49.026;8.712;2023-08-07T13:00:18;16.50;99.90
41678;DHT22;27364;49.026;8.712;2023-08-07T13:02:46;16.50;99.90
41678;DHT22;27364;49.026;8.712;2023-08-07T13:05:12;16.50;99.90
41678;DHT22;27364;49.026;8.712;2023-08-07T13:07:38;16.60;99.90
41678;DHT22;27364;49.026;8.712;2023-08-07T13:10:05;16.80;99.90
41678;DHT22;27364;49.026;8.712;2023-08-07T13:12:34;17.40;99.90
41678;DHT22;27364;49.026;8.712;2023-08-07T13:15:00;17.80;99.90
41678;DHT22;27364;49.026;8.712;2023-08-07T13:17:26;18.00;99.90
41678;DHT22;27364;49.026;8.712;2023-08-07T13:19:51;17.80;99.90
41678;DHT22;27364;49.026;8.712;2023-08-07T13:22:17;18.00;99.90
41678;DHT22;27364;49.026;8.712;2023-08-07T13:24:42;18.30;99.90
41678;DHT22;27364;49.026;8.712;2023-08-07T13:27:08;18.60;99.90
41678;DHT22;27364;49.026;8.712;2023-08-07T13:29:34;18.80;99.90
41678;DHT22;27364;49.026;8.712;2023-08-07T13:32:00;19.10;99.90
41678;DHT22;27364;49.026;8.712;2023-08-07T13:34:25;19.10;99.90
41678;DHT22;27364;49.026;8.712;2023-08-07T13:36:51;18.70;99.90
41678;DHT22;27364;49.026;8.712;2023-08-07T13:39:17;18.40;99.90
41678;DHT22;27364;49.026;8.712;2023-08-07T13:41:42;18.10;99.90
41678;DHT22;27364;49.026;8.712;2023-08-07T13:44:08;17.80;99.90
41678;DHT22;27364;49.026;8.712;2023-08-07T13:46:33;17.60;99.90
41678;DHT22;27364;49.026;8.712;2023-08-07T13:48:59;17.40;99.90
41678;DHT22;27364;49.026;8.712;2023-08-07T13:51:24;17.40;99.90
41678;DHT22;27364;49.026;8.712;2023-08-07T13:53:51;17.70;99.90
41678;DHT22;27364;49.026;8.712;2023-08-07T13:56:18;18.10;99.90
41678;DHT22;27364;49.026;8.712;2023-08-07T13:58:43;18.50;99.90
41678;DHT22;27364;49.026;8.712;2023-08-07T14:01:09;18.90;99.90
41678;DHT22;27364;49.026;8.712;2023-08-07T14:03:35;19.20;99.90
41678;DHT22;27364;49.026;8.712;2023-08-07T14:06:01;19.80;99.90
41678;DHT22;27364;49.026;8.712;2023-08-07T14:08:26;19.80;98.50
41678;DHT22;27364;49.026;8.712;2023-08-07T14:10:52;19.50;98.50
41678;DHT22;27364;49.026;8.712;2023-08-07T14:13:17;19.10;98.60
41678;DHT22;27364;49.026;8.712;2023-08-07T14:15:43;18.60;99.30
41678;DHT22;27364;49.026;8.712;2023-08-07T14:18:09;18.30;99.90
41678;DHT22;27364;49.026;8.712;2023-08-07T14:20:36;18.20;99.90
41678;DHT22;27364;49.026;8.712;2023-08-07T14:23:02;18.00;99.90
41678;DHT22;27364;49.026;8.712;2023-08-07T14:25:27;18.00;99.90
41678;DHT22;27364;49.026;8.712;2023-08-07T14:27:53;18.00;99.90
41678;DHT22;27364;49.026;8.712;2023-08-07T14:30:19;18.30;99.90
41678;DHT22;27364;49.026;8.712;2023-08-07T14:32:45;18.80;99.90
41678;DHT22;27364;49.026;8.712;2023-08-07T14:35:13;19.40;99.90
41678;DHT22;27364;49.026;8.712;2023-08-07T14:37:41;19.70;99.90
41678;DHT22;27364;49.026;8.712;2023-08-07T14:40:08;20.00;99.90
41678;DHT22;27364;49.026;8.712;2023-08-07T14:42:33;20.20;99.90
41678;DHT22;27364;49.026;8.712;2023-08-07T14:44:59;20.40;99.90
41678;DHT22;27364;49.026;8.712;2023-08-07T14:47:25;20.40;99.00
41678;DHT22;27364;49.026;8.712;2023-08-07T14:49:51;20.00;98.10
41678;DHT22;27364;49.026;8.712;2023-08-07T14:52:17;19.60;99.90
41678;DHT22;27364;49.026;8.712;2023-08-07T14:54:43;19.10;99.90
41678;DHT22;27364;49.026;8.712;2023-08-07T14:57:09;18.80;99.90
41678;DHT22;27364;49.026;8.712;2023-08-07T14:59:34;18.40;99.90
41678;DHT22;27364;49.026;8.712;2023-08-07T15:02:00;18.40;99.90
41678;DHT22;27364;49.026;8.712;2023-08-07T15:04:26;18.30;99.90
41678;DHT22;27364;49.026;8.712;2023-08-07T15:06:51;18.20;99.90
41678;DHT22;27364;49.026;8.712;2023-08-07T15:09:17;18.00;99.90
41678;DHT22;27364;49.026;8.712;2023-08-07T15:11:46;17.90;99.90
41678;DHT22;27364;49.026;8.712;2023-08-07T15:14:12;17.80;99.90
41678;DHT22;27364;49.026;8.712;2023-08-07T15:16:38;17.90;99.90
41678;DHT22;27364;49.026;8.712;2023-08-07T15:19:03;18.30;99.90
41678;DHT22;27364;49.026;8.712;2023-08-07T15:21:30;18.60;99.90
41678;DHT22;27364;49.026;8.712;2023-08-07T15:23:56;18.90;99.90
41678;DHT22;27364;49.026;8.712;2023-08-07T15:26:22;19.00;99.90
41678;DHT22;27364;49.026;8.712;2023-08-07T15:28:47;19.20;99.90
41678;DHT22;27364;49.026;8.712;2023-08-07T15:31:13;19.30;99.90
41678;DHT22;27364;49.026;8.712;2023-08-07T15:33:38;19.20;99.90